Time;durP1;ratioP1;P1;durP2;ratioP2;P2;SDS_P1;SDS_P2;PMS_P1;PMS_P2;Temp;Humidity;BMP_temperature;BMP_pressure;BME280_temperature;BME280_humidity;BME280_pressure;Samples;Min_cycle;Max_cycle;Signal;HPM_P1;HPM_P2
2023/03/04 00:02:12;;;;;;;4.3;0.9;;;;;;;;;;;;;-70
2023/03/04 00:02:23;;;;;;;;;;;;;;;4.92;85.27539;102839.8;;;;-71
2023/03/04 00:07:15;;;;;;;;;;;;;;;4.92;85.22266;102837.6;;;;-71
2023/03/04 00:12:13;;;;;;;;;;;;;;;4.91;85.55762;102844;;;;-71
2023/03/04 00:17:13;;;;;;;;;;;;;;;4.9;85.32617;102848.1;;;;-72
2023/03/04 00:22:13;;;;;;;;;;;;;;;4.89;85.16113;102849;;;;-71
2023/03/04 00:27:13;;;;;;;;;;;;;;;4.87;85.05762;102843.3;;;;-72
2023/03/04 00:32:12;;;;;;;5.6;1.1;;;;;;;;;;;;;-72
2023/03/04 00:32:22;;;;;;;;;;;;;;;4.85;85.16504;102839.2;;;;-71
2023/03/04 00:37:13;;;;;;;;;;;;;;;4.86;85.18652;102840.6;;;;-72
2023/03/04 00:42:15;;;;;;;;;;;;;;;4.85;85.54492;102844.2;;;;-71
2023/03/04 00:47:13;;;;;;;;;;;;;;;4.84;85.1416;102840.4;;;;-71
2023/03/04 00:52:13;;;;;;;;;;;;;;;4.83;85.47559;102845.2;;;;-71
2023/03/04 00:57:13;;;;;;;;;;;;;;;4.82;85.2998;102844.2;;;;-72
2023/03/04 01:02:13;;;;;;;7.4;1.2;;;;;;;;;;;;;-72
2023/03/04 01:02:22;;;;;;;;;;;;;;;4.79;85.47949;102842.2;;;;-72
2023/03/04 01:07:13;;;;;;;;;;;;;;;4.79;85.10938;102845.6;;;;-72
2023/03/04 01:12:13;;;;;;;;;;;;;;;4.78;85.00684;102846;;;;-72
2023/03/04 01:17:13;;;;;;;;;;;;;;;4.78;85.36719;102845;;;;-71
2023/03/04 01:22:15;;;;;;;;;;;;;;;4.76;85.17773;102838;;;;-72
2023/03/04 01:27:13;;;;;;;;;;;;;;;4.77;84.87402;102836.3;;;;-72
2023/03/04 01:32:13;;;;;;;6.4;0.9;;;;;;;;;;;;;-72
2023/03/04 01:32:23;;;;;;;;;;;;;;;4.76;85.36328;102835.3;;;;-72
2023/03/04 01:37:13;;;;;;;;;;;;;;;4.75;85.09082;102831.4;;;;-71
2023/03/04 01:42:17;;;;;;;;;;;;;;;4.74;85.55762;102823.9;;;;-71
2023/03/04 01:47:13;;;;;;;;;;;;;;;4.74;85.02148;102818.8;;;;-71
2023/03/04 01:52:13;;;;;;;;;;;;;;;4.72;85.20508;102811.2;;;;-71
2023/03/04 01:57:21;;;;;;;;;;;;;;;4.73;85.33594;102811.2;;;;-71
2023/03/04 02:02:13;;;;;;;;;;;;;;;4.72;85.03125;102805.6;;;;-72
2023/03/04 02:02:22;;;;;;;4.5;0.9;;;;;;;;;;;;;-72
2023/03/04 02:07:13;;;;;;;;;;;;;;;4.71;85.1582;102794.2;;;;-71
2023/03/04 02:12:13;;;;;;;;;;;;;;;4.71;85.05957;102795.1;;;;-70
2023/03/04 02:17:15;;;;;;;;;;;;;;;4.7;85.13477;102781.2;;;;-72
2023/03/04 02:22:13;;;;;;;;;;;;;;;4.69;85.14551;102776.5;;;;-72
2023/03/04 02:27:13;;;;;;;;;;;;;;;4.68;85.27246;102769.2;;;;-71
2023/03/04 02:32:13;;;;;;;;;;;;;;;4.68;85.3252;102765.1;;;;-72
2023/03/04 02:32:23;;;;;;;6.3;0.9;;;;;;;;;;;;;-72
2023/03/04 02:37:13;;;;;;;;;;;;;;;4.68;85.24023;102762.2;;;;-72
2023/03/04 02:42:13;;;;;;;;;;;;;;;4.67;85.24902;102756.8;;;;-71
2023/03/04 02:47:14;;;;;;;;;;;;;;;4.67;85.44531;102753;;;;-71
2023/03/04 02:52:16;;;;;;;;;;;;;;;4.67;85.25977;102746.8;;;;-71
2023/03/04 02:57:14;;;;;;;;;;;;;;;4.67;85.22559;102741;;;;-71
2023/03/04 03:02:13;;;;;;;;;;;;;;;4.67;85.27051;102743.1;;;;-72
2023/03/04 03:02:22;;;;;;;3.3;0.8;;;;;;;;;;;;;-72
2023/03/04 03:07:13;;;;;;;;;;;;;;;4.66;85.49609;102738.9;;;;-71
2023/03/04 03:12:13;;;;;;;;;;;;;;;4.67;85.4873;102736;;;;-71
2023/03/04 03:17:13;;;;;;;;;;;;;;;4.67;85.5957;102734.2;;;;-71
2023/03/04 03:22:15;;;;;;;;;;;;;;;4.66;85.48535;102736.3;;;;-70
2023/03/04 03:27:14;;;;;;;;;;;;;;;4.66;85.62695;102729.9;;;;-71
2023/03/04 03:32:13;;;;;;;;;;;;;;;4.65;85.74707;102733.1;;;;-71
2023/03/04 03:32:22;;;;;;;3.7;0.8;;;;;;;;;;;;;-71
2023/03/04 03:37:13;;;;;;;;;;;;;;;4.64;85.69922;102727.5;;;;-71
2023/03/04 03:42:13;;;;;;;;;;;;;;;4.62;85.9375;102725.3;;;;-71
2023/03/04 03:47:13;;;;;;;;;;;;;;;4.61;85.86816;102720.2;;;;-71
2023/03/04 03:52:13;;;;;;;;;;;;;;;4.6;85.69238;102719.5;;;;-71
2023/03/04 03:57:13;;;;;;;;;;;;;;;4.6;85.75781;102721.1;;;;-70
2023/03/04 04:02:13;;;;;;;;;;;;;;;4.6;85.76855;102721.5;;;;-69
2023/03/04 04:02:22;;;;;;;4.2;0.9;;;;;;;;;;;;;-69
2023/03/04 04:07:13;;;;;;;;;;;;;;;4.6;85.74707;102721.4;;;;-71
2023/03/04 04:12:15;;;;;;;;;;;;;;;4.6;85.6709;102720.4;;;;-72
2023/03/04 04:17:13;;;;;;;;;;;;;;;4.61;85.71777;102720.7;;;;-71
2023/03/04 04:22:16;;;;;;;;;;;;;;;4.6;85.82324;102719.6;;;;-71
2023/03/04 04:27:13;;;;;;;;;;;;;;;4.62;86.13184;102720.6;;;;-71
2023/03/04 04:32:13;;;;;;;;;;;;;;;4.62;86.29492;102723.4;;;;-71
2023/03/04 04:32:22;;;;;;;4.4;1;;;;;;;;;;;;;-71
2023/03/04 04:37:13;;;;;;;;;;;;;;;4.61;86.42383;102720.3;;;;-70
2023/03/04 04:42:13;;;;;;;;;;;;;;;4.62;86.63281;102723.5;;;;-72
2023/03/04 04:47:13;;;;;;;;;;;;;;;4.61;86.55469;102716.7;;;;-70
2023/03/04 04:52:13;;;;;;;;;;;;;;;4.6;86.44336;102717.3;;;;-71
2023/03/04 04:57:13;;;;;;;;;;;;;;;4.58;86.29883;102714;;;;-72
2023/03/04 05:02:13;;;;;;;;;;;;;;;4.58;86.38574;102713.5;;;;-71
2023/03/04 05:02:22;;;;;;;5.2;1;;;;;;;;;;;;;-71
2023/03/04 05:07:13;;;;;;;;;;;;;;;4.58;86.59082;102716.1;;;;-71
2023/03/04 05:12:13;;;;;;;;;;;;;;;4.56;86.38184;102719.8;;;;-71
2023/03/04 05:17:13;;;;;;;;;;;;;;;4.54;86.56348;102715.3;;;;-70
2023/03/04 05:22:13;;;;;;;;;;;;;;;4.53;86.60547;102721.3;;;;-71
2023/03/04 05:27:13;;;;;;;;;;;;;;;4.53;86.69043;102720.5;;;;-71
2023/03/04 05:32:13;;;;;;;;;;;;;;;4.52;86.54688;102718.6;;;;-71
2023/03/04 05:32:22;;;;;;;3.1;0.8;;;;;;;;;;;;;-71
2023/03/04 05:37:13;;;;;;;;;;;;;;;4.5;86.55469;102720.2;;;;-72
2023/03/04 05:42:13;;;;;;;;;;;;;;;4.5;86.5332;102722.3;;;;-70
2023/03/04 05:47:13;;;;;;;;;;;;;;;4.49;86.58398;102727.5;;;;-72
2023/03/04 05:52:14;;;;;;;;;;;;;;;4.49;86.55078;102725.6;;;;-71
2023/03/04 05:57:13;;;;;;;;;;;;;;;4.49;86.5957;102728.3;;;;-70
2023/03/04 06:02:13;;;;;;;;;;;;;;;4.48;86.72461;102720.9;;;;-70
2023/03/04 06:02:22;;;;;;;2.6;0.6;;;;;;;;;;;;;-70
2023/03/04 06:07:13;;;;;;;;;;;;;;;4.49;86.90332;102723.2;;;;-71
2023/03/04 06:12:13;;;;;;;;;;;;;;;4.46;86.98047;102720.2;;;;-71
2023/03/04 06:17:13;;;;;;;;;;;;;;;4.44;86.90234;102718.1;;;;-71
2023/03/04 06:22:13;;;;;;;;;;;;;;;4.35;87.31934;102715.6;;;;-71
2023/03/04 06:27:15;;;;;;;;;;;;;;;4.28;86.85938;102718.1;;;;-71
2023/03/04 06:32:13;;;;;;;;;;;;;;;4.24;87.38477;102716.5;;;;-71
2023/03/04 06:32:22;;;;;;;2.7;0.7;;;;;;;;;;;;;-71
2023/03/04 06:37:13;;;;;;;;;;;;;;;4.21;87.44434;102716.2;;;;-71
2023/03/04 06:42:13;;;;;;;;;;;;;;;4.22;87.56641;102719.7;;;;-70
2023/03/04 06:47:15;;;;;;;;;;;;;;;4.24;87.35059;102719;;;;-71
2023/03/04 06:52:13;;;;;;;;;;;;;;;4.27;87.21582;102722.3;;;;-71
2023/03/04 06:57:13;;;;;;;;;;;;;;;4.32;87.20508;102726.7;;;;-71
2023/03/04 07:02:13;;;;;;;;;;;;;;;4.35;87.2002;102740.9;;;;-70
2023/03/04 07:02:23;;;;;;;2.9;0.6;;;;;;;;;;;;;-70
2023/03/04 07:07:13;;;;;;;;;;;;;;;4.38;87.36914;102740.3;;;;-71
2023/03/04 07:12:14;;;;;;;;;;;;;;;4.39;87.45801;102740.8;;;;-71
2023/03/04 07:17:13;;;;;;;;;;;;;;;4.48;87.7373;102740.8;;;;-72
2023/03/04 07:22:14;;;;;;;;;;;;;;;4.57;87.67969;102743.3;;;;-72
2023/03/04 07:27:13;;;;;;;;;;;;;;;4.7;87.78223;102744.8;;;;-71
2023/03/04 07:32:14;;;;;;;;;;;;;;;4.87;87.55566;102743.1;;;;-72
2023/03/04 07:32:23;;;;;;;2.7;0.4;;;;;;;;;;;;;-72
2023/03/04 07:37:13;;;;;;;;;;;;;;;5;87.17773;102751;;;;-71
2023/03/04 07:42:13;;;;;;;;;;;;;;;5.1;87.13281;102753.7;;;;-69
2023/03/04 07:47:13;;;;;;;;;;;;;;;5.17;87.07129;102757.3;;;;-68
2023/03/04 07:52:13;;;;;;;;;;;;;;;5.25;87.01172;102753.6;;;;-71
2023/03/04 07:57:13;;;;;;;;;;;;;;;5.37;87.17676;102760.2;;;;-69
2023/03/04 08:02:14;;;;;;;;;;;;;;;5.52;87.09766;102750.9;;;;-69
2023/03/04 08:02:24;;;;;;;1.3;0.5;;;;;;;;;;;;;-69
2023/03/04 08:07:13;;;;;;;;;;;;;;;5.68;87.33789;102753.7;;;;-72
2023/03/04 08:12:13;;;;;;;;;;;;;;;5.79;87.6543;102759.2;;;;-71
2023/03/04 08:17:13;;;;;;;;;;;;;;;5.95;87.13965;102762.5;;;;-71
2023/03/04 08:22:13;;;;;;;;;;;;;;;6.02;87.27441;102755.9;;;;-71
2023/03/04 08:27:14;;;;;;;;;;;;;;;6.13;86.8916;102756.2;;;;-72
2023/03/04 08:32:12;;;;;;;;;;;;;;;6.27;86.79004;102752.6;;;;-71
2023/03/04 08:32:22;;;;;;;6.3;1.7;;;;;;;;;;;;;-71
2023/03/04 08:37:16;;;;;;;;;;;;;;;6.39;86.59473;102749.8;;;;-72
2023/03/04 08:42:13;;;;;;;;;;;;;;;6.46;86.5332;102749.8;;;;-71
2023/03/04 08:47:13;;;;;;;;;;;;;;;6.53;86.47949;102752.6;;;;-71
2023/03/04 08:52:13;;;;;;;;;;;;;;;6.7;86.53613;102755.4;;;;-71
2023/03/04 08:57:13;;;;;;;;;;;;;;;6.93;86.66895;102757.7;;;;-71
2023/03/04 09:02:13;;;;;;;;;;;;;;;7.08;85.99902;102757.5;;;;-71
2023/03/04 09:02:23;;;;;;;4.6;1.6;;;;;;;;;;;;;-71
2023/03/04 09:07:13;;;;;;;;;;;;;;;7.16;85.60938;102752;;;;-71
2023/03/04 09:12:13;;;;;;;;;;;;;;;7.36;85.62695;102743.2;;;;-71
2023/03/04 09:17:13;;;;;;;;;;;;;;;7.53;85.70313;102743;;;;-71
2023/03/04 09:22:13;;;;;;;;;;;;;;;7.68;85.78906;102739.8;;;;-70
2023/03/04 09:27:13;;;;;;;;;;;;;;;8.02;85.28418;102736.8;;;;-71
2023/03/04 09:32:14;;;;;;;;;;;;;;;8.08;83.98926;102739.2;;;;-70
2023/03/04 09:32:23;;;;;;;5.1;1.2;;;;;;;;;;;;;-70
2023/03/04 09:37:13;;;;;;;;;;;;;;;8;83.88379;102744;;;;-72
2023/03/04 09:42:19;;;;;;;;;;;;;;;7.88;84.40039;102742;;;;-71
2023/03/04 09:47:15;;;;;;;;;;;;;;;7.95;85.10547;102741.9;;;;-71
2023/03/04 09:52:21;;;;;;;;;;;;;;;8.15;84.64941;102736.7;;;;-71
2023/03/04 09:57:22;;;;;;;;;;;;;;;8.31;84.52637;102735.9;;;;-71
2023/03/04 10:02:19;;;;;;;;;;;;;;;8.53;84.08398;102726.1;;;;-71
2023/03/04 10:02:32;;;;;;;3.5;1;;;;;;;;;;;;;-71
2023/03/04 10:07:18;;;;;;;;;;;;;;;8.66;83.79199;102723.7;;;;-71
2023/03/04 10:12:15;;;;;;;;;;;;;;;8.6;83.53711;102736.6;;;;-71
2023/03/04 10:17:17;;;;;;;;;;;;;;;8.47;83.4248;102736.5;;;;-72
2023/03/04 10:22:22;;;;;;;;;;;;;;;8.35;83.50098;102733.4;;;;-71
2023/03/04 10:27:15;;;;;;;;;;;;;;;8.29;84.07324;102728.6;;;;-72
2023/03/04 10:32:15;;;;;;;;;;;;;;;8.38;84.21191;102734.6;;;;-71
2023/03/04 10:32:24;;;;;;;5;0.9;;;;;;;;;;;;;-71
2023/03/04 10:37:13;;;;;;;;;;;;;;;8.45;84.08105;102732.5;;;;-73
2023/03/04 10:42:23;;;;;;;;;;;;;;;8.39;83.48633;102731.6;;;;-72
2023/03/04 10:47:13;;;;;;;;;;;;;;;8.72;85.29883;102727.8;;;;-71
2023/03/04 10:52:22;;;;;;;;;;;;;;;9.03;83.89648;102728.5;;;;-73
2023/03/04 10:57:16;;;;;;;;;;;;;;;8.97;83.15723;102735.5;;;;-72
2023/03/04 11:02:27;;;;;;;;;;;;;;;8.82;83.38086;102730.8;;;;-70
2023/03/04 11:02:37;;;;;;;3;0.8;;;;;;;;;;;;;-70
2023/03/04 11:07:17;;;;;;;;;;;;;;;8.76;84.04199;102724.8;;;;-69
2023/03/04 11:12:17;;;;;;;;;;;;;;;8.9;84.14746;102719.1;;;;-69
2023/03/04 11:17:23;;;;;;;;;;;;;;;9.05;83.86719;102732.5;;;;-69
2023/03/04 11:22:13;;;;;;;;;;;;;;;8.93;84.49316;102734.3;;;;-68
2023/03/04 11:27:18;;;;;;;;;;;;;;;8.74;82.83887;102728.1;;;;-70
2023/03/04 11:32:15;;;;;;;;;;;;;;;8.65;83.17383;102723.5;;;;-69
2023/03/04 11:32:27;;;;;;;5.7;0.9;;;;;;;;;;;;;-69
2023/03/04 11:37:15;;;;;;;;;;;;;;;8.66;83.81348;102718.5;;;;-69
2023/03/04 11:42:16;;;;;;;;;;;;;;;8.81;84.65625;102713.9;;;;-69
2023/03/04 11:47:25;;;;;;;;;;;;;;;9.17;84.51758;102700.5;;;;-68
2023/03/04 11:52:22;;;;;;;;;;;;;;;9.39;83.11621;102705.2;;;;-69
2023/03/04 11:57:21;;;;;;;;;;;;;;;9.38;82.33301;102706.6;;;;-70
2023/03/04 12:02:19;;;;;;;;;;;;;;;9.31;82.18652;102704.8;;;;-69
2023/03/04 12:02:31;;;;;;;9;1.6;;;;;;;;;;;;;-69
2023/03/04 12:07:21;;;;;;;;;;;;;;;9.23;81.53223;102709.3;;;;-68
2023/03/04 12:12:21;;;;;;;;;;;;;;;9.13;82.06445;102711.5;;;;-69
2023/03/04 12:17:34;;;;;;;;;;;;;;;9.02;81.92285;102703.8;;;;-71
2023/03/04 12:22:19;;;;;;;;;;;;;;;8.98;81.94922;102696;;;;-72
2023/03/04 12:27:20;;;;;;;;;;;;;;;8.95;81.97559;102695.8;;;;-72
2023/03/04 12:32:17;;;;;;;;;;;;;;;8.92;82.51855;102688.4;;;;-73
2023/03/04 12:32:30;;;;;;;13.2;2.4;;;;;;;;;;;;;-73
2023/03/04 12:37:25;;;;;;;;;;;;;;;8.89;82.20508;102684.7;;;;-71
2023/03/04 12:42:21;;;;;;;;;;;;;;;8.86;82.2998;102681.1;;;;-72
2023/03/04 12:47:17;;;;;;;;;;;;;;;8.82;82.85449;102674.7;;;;-71
2023/03/04 12:52:16;;;;;;;;;;;;;;;8.82;82.51074;102671.9;;;;-69
2023/03/04 12:57:15;;;;;;;;;;;;;;;8.88;82.97656;102657;;;;-72
2023/03/04 13:02:27;;;;;;;;;;;;;;;8.96;82.18652;102645.7;;;;-71
2023/03/04 13:02:44;;;;;;;11.9;2.2;;;;;;;;;;;;;-71
2023/03/04 13:07:21;;;;;;;;;;;;;;;8.99;82.48828;102648;;;;-72
2023/03/04 13:12:19;;;;;;;;;;;;;;;8.99;81.80566;102642.9;;;;-71
2023/03/04 13:17:24;;;;;;;;;;;;;;;8.98;82.25781;102638.7;;;;-71
2023/03/04 13:22:23;;;;;;;;;;;;;;;8.98;81.99121;102642.1;;;;-72
2023/03/04 13:27:23;;;;;;;;;;;;;;;8.94;81.48828;102636.2;;;;-71
2023/03/04 13:32:16;;;;;;;;;;;;;;;8.89;81.19141;102631.8;;;;-71
2023/03/04 13:32:38;;;;;;;7.1;1.3;;;;;;;;;;;;;-71
2023/03/04 13:37:26;;;;;;;;;;;;;;;8.87;81.69531;102630;;;;-71
2023/03/04 13:42:24;;;;;;;;;;;;;;;8.82;82.03906;102631.2;;;;-71
2023/03/04 13:47:18;;;;;;;;;;;;;;;8.77;81.30176;102634.6;;;;-71
2023/03/04 13:52:24;;;;;;;;;;;;;;;8.66;81.6123;102636.1;;;;-72
2023/03/04 13:57:23;;;;;;;;;;;;;;;8.62;82.68262;102630.8;;;;-67
2023/03/04 14:02:19;;;;;;;;;;;;;;;8.55;82.77832;102633.2;;;;-70
2023/03/04 14:02:28;;;;;;;6.9;1.1;;;;;;;;;;;;;-70
2023/03/04 14:07:26;;;;;;;;;;;;;;;8.52;82.2998;102633.8;;;;-70
2023/03/04 14:12:19;;;;;;;;;;;;;;;8.52;82.44531;102623;;;;-70
2023/03/04 14:17:18;;;;;;;;;;;;;;;8.56;82.57324;102614.2;;;;-69
2023/03/04 14:22:25;;;;;;;;;;;;;;;8.58;82.84082;102615.4;;;;-69
2023/03/04 14:27:17;;;;;;;;;;;;;;;8.54;82.44824;102608.7;;;;-70
2023/03/04 14:32:15;;;;;;;;;;;;;;;8.45;82.20215;102602.9;;;;-70
2023/03/04 14:32:25;;;;;;;5.3;1;;;;;;;;;;;;;-69
2023/03/04 14:37:24;;;;;;;;;;;;;;;8.38;83.90234;102606.2;;;;-71
2023/03/04 14:42:16;;;;;;;;;;;;;;;8.31;83.56934;102598;;;;-72
2023/03/04 14:47:16;;;;;;;;;;;;;;;8.32;83.46289;102584;;;;-71
2023/03/04 14:52:23;;;;;;;;;;;;;;;8.41;83.01855;102577;;;;-71
2023/03/04 14:57:25;;;;;;;;;;;;;;;8.49;82.67969;102576.6;;;;-72
2023/03/04 15:02:23;;;;;;;;;;;;;;;8.52;82.97363;102568.5;;;;-71
2023/03/04 15:02:38;;;;;;;3.4;0.9;;;;;;;;;;;;;-71
2023/03/04 15:07:18;;;;;;;;;;;;;;;8.46;82.55371;102571.7;;;;-71
2023/03/04 15:12:13;;;;;;;;;;;;;;;8.4;83.07031;102567.1;;;;-71
2023/03/04 15:17:23;;;;;;;;;;;;;;;8.36;83.52637;102567.8;;;;-71
2023/03/04 15:22:12;;;;;;;;;;;;;;;8.3;83.11816;102569.2;;;;-72
2023/03/04 15:27:15;;;;;;;;;;;;;;;8.26;83.49512;102564.8;;;;-70
2023/03/04 15:32:14;;;;;;;;;;;;;;;8.2;83.06641;102564;;;;-72
2023/03/04 15:32:27;;;;;;;3.8;0.9;;;;;;;;;;;;;-71
2023/03/04 15:37:19;;;;;;;;;;;;;;;8.15;83.29785;102570.4;;;;-72
2023/03/04 15:42:16;;;;;;;;;;;;;;;8.08;83.43945;102565.4;;;;-73
2023/03/04 15:47:13;;;;;;;;;;;;;;;8.02;83.55762;102566.4;;;;-71
2023/03/04 15:52:17;;;;;;;;;;;;;;;7.95;83.43555;102562.1;;;;-70
2023/03/04 15:57:18;;;;;;;;;;;;;;;7.86;83.91211;102560.8;;;;-70
2023/03/04 16:02:13;;;;;;;;;;;;;;;7.79;84.51465;102557.7;;;;-71
2023/03/04 16:02:29;;;;;;;7;1;;;;;;;;;;;;;-71
2023/03/04 16:07:16;;;;;;;;;;;;;;;7.71;84.02734;102551.4;;;;-71
2023/03/04 16:12:16;;;;;;;;;;;;;;;7.64;83.96875;102545.1;;;;-71
2023/03/04 16:17:14;;;;;;;;;;;;;;;7.58;84.13379;102545.5;;;;-72
2023/03/04 16:22:13;;;;;;;;;;;;;;;7.53;84.69434;102541.8;;;;-71
2023/03/04 16:27:13;;;;;;;;;;;;;;;7.48;84.70508;102544.9;;;;-73
2023/03/04 16:32:13;;;;;;;;;;;;;;;7.42;84.81543;102540.1;;;;-70
2023/03/04 16:32:29;;;;;;;7.1;1.3;;;;;;;;;;;;;-70
2023/03/04 16:37:16;;;;;;;;;;;;;;;7.37;84.90332;102530.5;;;;-71
2023/03/04 16:42:17;;;;;;;;;;;;;;;7.29;84.7998;102536.3;;;;-70
2023/03/04 16:47:13;;;;;;;;;;;;;;;7.22;85.09375;102536.3;;;;-71
2023/03/04 16:52:23;;;;;;;;;;;;;;;7.15;84.9502;102536.5;;;;-71
2023/03/04 16:57:13;;;;;;;;;;;;;;;7.1;85.52051;102537.6;;;;-71
2023/03/04 17:02:15;;;;;;;;;;;;;;;7.04;85.8584;102531.5;;;;-72
2023/03/04 17:02:32;;;;;;;4;0.7;;;;;;;;;;;;;-71
2023/03/04 17:07:13;;;;;;;;;;;;;;;6.98;86.43945;102530.5;;;;-71
2023/03/04 17:12:14;;;;;;;;;;;;;;;6.91;86.47949;102535.3;;;;-70
2023/03/04 17:17:13;;;;;;;;;;;;;;;6.84;86.64063;102539.3;;;;-70
2023/03/04 17:22:13;;;;;;;;;;;;;;;6.78;86.61816;102542.8;;;;-70
2023/03/04 17:27:13;;;;;;;;;;;;;;;6.73;86.7168;102545;;;;-71
2023/03/04 17:32:12;;;;;;;;;;;;;;;6.66;86.75879;102543.3;;;;-71
2023/03/04 17:32:33;;;;;;;3.1;0.8;;;;;;;;;;;;;-70
2023/03/04 17:37:12;;;;;;;;;;;;;;;6.62;86.94629;102553.8;;;;-71
2023/03/04 17:42:12;;;;;;;;;;;;;;;6.55;87.00879;102564.1;;;;-71
2023/03/04 17:47:12;;;;;;;;;;;;;;;6.49;87.11816;102571;;;;-71
2023/03/04 17:52:13;;;;;;;;;;;;;;;6.44;87.15039;102575.7;;;;-72
2023/03/04 17:57:13;;;;;;;;;;;;;;;6.36;86.9834;102576.7;;;;-71
2023/03/04 18:02:14;;;;;;;;;;;;;;;6.28;87.07617;102581.5;;;;-71
2023/03/04 18:02:31;;;;;;;5.2;1.1;;;;;;;;;;;;;-72
2023/03/04 18:07:13;;;;;;;;;;;;;;;6.18;87.24023;102584.4;;;;-70
2023/03/04 18:12:13;;;;;;;;;;;;;;;6.07;87.35059;102585.6;;;;-71
2023/03/04 18:17:12;;;;;;;;;;;;;;;5.98;87.12305;102588.4;;;;-71
2023/03/04 18:22:12;;;;;;;;;;;;;;;5.89;86.62793;102579.3;;;;-71
2023/03/04 18:27:12;;;;;;;;;;;;;;;5.76;85.98926;102579.7;;;;-70
2023/03/04 18:32:12;;;;;;;;;;;;;;;5.66;86.26367;102581.9;;;;-71
2023/03/04 18:32:31;;;;;;;5.3;1;;;;;;;;;;;;;-71
2023/03/04 18:37:12;;;;;;;;;;;;;;;5.57;85.81836;102573.5;;;;-72
2023/03/04 18:42:12;;;;;;;;;;;;;;;5.5;86.34082;102568.1;;;;-71
2023/03/04 18:47:13;;;;;;;;;;;;;;;5.43;86.23828;102563.8;;;;-71
2023/03/04 18:52:12;;;;;;;;;;;;;;;5.35;86.32031;102562.8;;;;-71
2023/03/04 18:57:15;;;;;;;;;;;;;;;5.28;86.61328;102560.7;;;;-72
2023/03/04 19:02:18;;;;;;;;;;;;;;;5.2;86.94531;102564;;;;-71
2023/03/04 19:02:34;;;;;;;6.3;1.3;;;;;;;;;;;;;-72
2023/03/04 19:07:12;;;;;;;;;;;;;;;5.14;86.98926;102560;;;;-71
2023/03/04 19:12:12;;;;;;;;;;;;;;;5.07;87.21484;102550.7;;;;-71
2023/03/04 19:17:13;;;;;;;;;;;;;;;5.02;87.22559;102545.4;;;;-71
2023/03/04 19:22:12;;;;;;;;;;;;;;;4.94;87.4707;102551.1;;;;-71
2023/03/04 19:27:12;;;;;;;;;;;;;;;4.86;87.5957;102554;;;;-72
2023/03/04 19:32:13;;;;;;;;;;;;;;;4.76;87.5332;102560.5;;;;-71
2023/03/04 19:32:32;;;;;;;6;1.1;;;;;;;;;;;;;-71
2023/03/04 19:37:13;;;;;;;;;;;;;;;4.7;87.55273;102564.8;;;;-71
2023/03/04 19:42:13;;;;;;;;;;;;;;;4.65;87.57715;102565.7;;;;-71
2023/03/04 19:47:12;;;;;;;;;;;;;;;4.64;87.51855;102568.5;;;;-71
2023/03/04 19:52:12;;;;;;;;;;;;;;;4.57;87.64746;102563.4;;;;-71
2023/03/04 19:57:12;;;;;;;;;;;;;;;4.57;87.70117;102559.1;;;;-72
2023/03/04 20:02:12;;;;;;;;;;;;;;;4.54;87.74902;102552.1;;;;-71
2023/03/04 20:02:32;;;;;;;4.5;1.1;;;;;;;;;;;;;-71
2023/03/04 20:07:12;;;;;;;;;;;;;;;4.54;87.97754;102546.7;;;;-71
2023/03/04 20:12:14;;;;;;;;;;;;;;;4.49;88.03516;102535.2;;;;-72
2023/03/04 20:17:14;;;;;;;;;;;;;;;4.48;88.15137;102538.7;;;;-72
2023/03/04 20:22:13;;;;;;;;;;;;;;;4.46;87.87305;102536.5;;;;-71
2023/03/04 20:27:14;;;;;;;;;;;;;;;4.43;87.95508;102539.5;;;;-71
2023/03/04 20:32:12;;;;;;;;;;;;;;;4.38;87.83691;102531.5;;;;-72
2023/03/04 20:32:33;;;;;;;4.5;0.9;;;;;;;;;;;;;-71
2023/03/04 20:37:12;;;;;;;;;;;;;;;4.3;87.88574;102536.8;;;;-71
2023/03/04 20:42:12;;;;;;;;;;;;;;;4.22;87.87988;102534.2;;;;-70
2023/03/04 20:47:13;;;;;;;;;;;;;;;4.13;87.99121;102544.1;;;;-70
2023/03/04 20:52:13;;;;;;;;;;;;;;;4.08;87.93848;102541.7;;;;-70
2023/03/04 20:57:14;;;;;;;;;;;;;;;4.05;88.20508;102540.9;;;;-71
2023/03/04 21:02:16;;;;;;;;;;;;;;;4.04;88.34277;102539.5;;;;-71
2023/03/04 21:02:33;;;;;;;3.1;0.9;;;;;;;;;;;;;-71
2023/03/04 21:07:12;;;;;;;;;;;;;;;4.04;88.33398;102540.1;;;;-72
2023/03/04 21:12:12;;;;;;;;;;;;;;;3.99;88.68066;102533.7;;;;-72
2023/03/04 21:17:13;;;;;;;;;;;;;;;3.96;88.36914;102533.1;;;;-72
2023/03/04 21:22:13;;;;;;;;;;;;;;;3.93;88.17871;102527.9;;;;-71
2023/03/04 21:27:15;;;;;;;;;;;;;;;3.91;88.54492;102526.4;;;;-71
2023/03/04 21:32:15;;;;;;;;;;;;;;;3.85;88.31445;102527.7;;;;-70
2023/03/04 21:32:33;;;;;;;3.7;0.8;;;;;;;;;;;;;-71
2023/03/04 21:37:12;;;;;;;;;;;;;;;3.81;88.33984;102520.9;;;;-70
2023/03/04 21:42:13;;;;;;;;;;;;;;;3.78;88.25781;102520.5;;;;-71
2023/03/04 21:47:12;;;;;;;;;;;;;;;3.77;88.28906;102523.3;;;;-71
2023/03/04 21:52:14;;;;;;;;;;;;;;;3.78;88.46484;102524.8;;;;-71
2023/03/04 21:57:13;;;;;;;;;;;;;;;3.74;88.3916;102506.6;;;;-71
2023/03/04 22:02:16;;;;;;;;;;;;;;;3.72;88.2666;102500.5;;;;-70
2023/03/04 22:02:33;;;;;;;2.3;0.8;;;;;;;;;;;;;-71
2023/03/04 22:07:12;;;;;;;;;;;;;;;3.71;88.24512;102499.8;;;;-71
2023/03/04 22:12:13;;;;;;;;;;;;;;;3.69;88.40234;102495.6;;;;-71
2023/03/04 22:17:12;;;;;;;;;;;;;;;3.69;88.42383;102489.1;;;;-71
2023/03/04 22:22:12;;;;;;;;;;;;;;;3.61;88.51563;102481;;;;-71
2023/03/04 22:27:12;;;;;;;;;;;;;;;3.56;88.6582;102474.9;;;;-71
2023/03/04 22:32:12;;;;;;;;;;;;;;;3.48;88.56543;102470.8;;;;-71
2023/03/04 22:32:33;;;;;;;2.6;0.8;;;;;;;;;;;;;-70
2023/03/04 22:37:12;;;;;;;;;;;;;;;3.42;88.50879;102467.9;;;;-71
2023/03/04 22:42:12;;;;;;;;;;;;;;;3.32;88.52148;102465.5;;;;-71
2023/03/04 22:47:12;;;;;;;;;;;;;;;3.22;88.54395;102458.8;;;;-72
2023/03/04 22:52:12;;;;;;;;;;;;;;;3.11;88.79297;102456.4;;;;-71
2023/03/04 22:57:13;;;;;;;;;;;;;;;3.03;88.99219;102451;;;;-71
2023/03/04 23:02:12;;;;;;;;;;;;;;;2.95;88.81445;102448.7;;;;-70
2023/03/04 23:02:32;;;;;;;3.2;0.9;;;;;;;;;;;;;-69
2023/03/04 23:07:12;;;;;;;;;;;;;;;2.85;88.75098;102438.1;;;;-71
2023/03/04 23:12:13;;;;;;;;;;;;;;;2.8;89.05371;102439.1;;;;-71
2023/03/04 23:17:12;;;;;;;;;;;;;;;2.74;89.31152;102435.7;;;;-71
2023/03/04 23:22:12;;;;;;;;;;;;;;;2.69;89.05273;102430.6;;;;-70
2023/03/04 23:27:12;;;;;;;;;;;;;;;2.7;89.01367;102430.3;;;;-71
2023/03/04 23:32:12;;;;;;;;;;;;;;;2.66;89.27441;102423.3;;;;-70
2023/03/04 23:32:32;;;;;;;3.2;0.7;;;;;;;;;;;;;-71
2023/03/04 23:37:12;;;;;;;;;;;;;;;2.69;89.38867;102419.4;;;;-71
2023/03/04 23:42:12;;;;;;;;;;;;;;;2.67;89.42676;102416.6;;;;-70
2023/03/04 23:47:13;;;;;;;;;;;;;;;2.66;89.12305;102405.9;;;;-70
2023/03/04 23:52:12;;;;;;;;;;;;;;;2.66;89.17773;102395.9;;;;-70
2023/03/04 23:57:12;;;;;;;;;;;;;;;2.59;89.14063;102389.6;;;;-70
